Binissalem, Spain
Current Conditions -  °F | °C
As of 8:00 AM on Wednesday 26 Nov 2014 (Local Time) from LEPA Reporting Station
Light Fog Light Fog  
Wind Chill: 57°   Ceiling: Unl
Heat Index: 57°   Visibility: 6mi
Dew Point: 57°   Wind: 1mph
Humidity: 100%   Direction: 90°E
Pressure: 29.91"   Gusts: NA
Location:  39.69°N, 2.84°E
Report Text: LEPA 260700Z 09001KT 9000 1100NE BCFG SCT002 14/14 Q1013 NOSIG
Loading
Personal Weather Stations






























Interactive Weather Map New forecast layout! Learn more

10-Day Weather Forecast

Advertisements
Track Severe Weather on mobile